Terminal Aerodrome Forecast
Issued by NWS

Home | Current Version | Previous Version | Text Only | Print | Product List | Glossary On
Versions: 1 2 3 4 5 6 7 8 9 10 11 12 13 14 15
000
FTUS45 KABQ 261700 RRA
TAFLVS
TAF
KLVS 261741Z 2618/2718 18012G20KT P6SM -SHRA BKN035 OVC060
      TEMPO 2620/2623 5SM TSRA BKN030CB
     FM270200 04015KT 6SM -SHRA BR OVC040
     FM270400 01015G23KT 5SM -RA BR SCT007 OVC019
     FM270800 01015KT 3SM RA BR OVC007=

USA.gov is the U.S. government's official web portal to all federal, state and local government web resources and services.